createdAt,value
2018-06-03T02:23:21.354Z,13.42
2018-06-03T02:24:30.264Z,13.75
2018-06-03T02:25:21.870Z,13.66
2018-06-03T02:26:21.877Z,13.66
2018-06-03T02:27:22.050Z,13.39
2018-06-03T02:28:22.230Z,13.38
2018-06-03T02:29:22.484Z,13.32
2018-06-03T02:30:22.728Z,13.29
2018-06-03T02:31:22.963Z,13.25
2018-06-03T02:32:23.222Z,13.26
2018-06-03T02:33:23.458Z,13.26
2018-06-03T02:34:23.679Z,13.25
2018-06-03T02:35:23.937Z,13.25
2018-06-03T02:36:24.160Z,13.14
2018-06-03T02:37:24.390Z,13.12
2018-06-03T02:38:24.603Z,13.04
2018-06-03T02:39:24.840Z,13.05
2018-06-03T02:40:25.074Z,13.01
2018-06-03T02:41:25.347Z,12.95
2018-06-03T02:42:25.574Z,12.96
2018-06-03T02:43:25.809Z,12.95
2018-06-03T02:44:26.036Z,12.90
2018-06-03T02:45:35.265Z,12.82
2018-06-03T02:46:26.819Z,12.83
2018-06-03T02:47:26.946Z,12.75
2018-06-03T02:48:27.191Z,12.77
2018-06-03T02:49:27.398Z,12.77
2018-06-03T02:50:27.635Z,12.83
2018-06-03T02:51:27.871Z,12.79
2018-06-03T02:52:36.861Z,12.78
2018-06-03T02:53:28.588Z,12.79
2018-06-03T02:54:36.614Z,12.87
2018-06-03T02:55:29.241Z,12.86
2018-06-03T02:56:38.157Z,12.92
2018-06-03T02:57:29.862Z,12.92
2018-06-03T02:58:39.800Z,13.12
2018-06-03T02:59:30.301Z,13.26
2018-06-03T03:00:39.306Z,13.29
2018-06-03T03:01:31.047Z,13.44
2018-06-03T03:02:39.948Z,13.48
2018-06-03T03:03:31.783Z,13.54
2018-06-03T03:04:40.786Z,13.52
2018-06-03T03:05:32.293Z,13.48
2018-06-03T03:06:32.490Z,13.51
2018-06-03T03:07:32.717Z,13.45
2018-06-03T03:08:32.985Z,13.45
2018-06-03T03:09:41.960Z,13.44
2018-06-03T03:10:42.567Z,13.41
2018-06-03T03:11:33.922Z,13.41
2018-06-03T03:12:34.124Z,13.39
2018-06-03T03:13:34.332Z,13.29
2018-06-03T03:14:44.356Z,13.44
2018-06-03T03:15:34.882Z,13.44
2018-06-03T03:16:43.763Z,13.29
2018-06-03T03:17:43.314Z,13.32
2018-06-03T03:18:44.567Z,13.42
2018-06-03T03:19:44.793Z,13.41
2018-06-03T03:20:36.434Z,13.41
2018-06-03T03:21:46.509Z,13.57
2018-06-03T03:22:36.907Z,13.46
2018-06-03T03:23:45.837Z,13.64
2018-06-03T03:24:46.356Z,13.60
2018-06-03T03:25:46.510Z,13.70
2018-06-03T03:26:38.170Z,13.73
2018-06-03T03:27:47.190Z,13.79
2018-06-03T03:28:47.501Z,13.81
2018-06-03T03:29:46.889Z,13.77
2018-06-03T03:30:39.559Z,13.89
2018-06-03T03:31:48.558Z,13.89
2018-06-03T03:32:40.125Z,13.91
2018-06-03T03:33:49.012Z,13.97
2018-06-03T03:34:40.869Z,14.02
2018-06-03T03:35:49.884Z,14.02
2018-06-03T03:36:41.228Z,14.03
2018-06-03T03:37:50.275Z,14.03
2018-06-03T03:38:50.598Z,14.06
2018-06-03T03:39:51.065Z,14.00
2018-06-03T03:40:51.192Z,14.04
2018-06-03T03:41:51.542Z,13.92
2018-06-03T03:42:43.256Z,13.82
2018-06-03T03:43:43.531Z,13.88
2018-06-03T03:44:43.682Z,13.85
2018-06-03T03:45:53.686Z,13.95
2018-06-03T03:46:44.207Z,13.97
2018-06-03T03:47:53.201Z,14.03
2018-06-03T03:48:44.991Z,14.15
2018-06-03T03:49:45.029Z,14.17
2018-06-03T03:50:45.271Z,14.12
2018-06-03T03:51:54.223Z,14.07
2018-06-03T03:52:54.633Z,14.10
2018-06-03T03:53:55.191Z,14.14
2018-06-03T03:54:55.406Z,13.99
2018-06-03T03:55:56.889Z,14.00
2018-06-03T03:56:54.050Z,14.06
2018-06-03T03:57:47.608Z,13.97
2018-06-03T03:58:56.890Z,14.03
2018-06-03T03:59:57.060Z,13.95
2018-06-03T04:00:48.433Z,13.97
2018-06-03T04:01:57.427Z,14.00
2018-06-03T04:02:58.697Z,14.10
2018-06-03T04:03:49.170Z,14.10
2018-06-03T04:04:49.383Z,14.17
2018-06-03T04:05:58.291Z,14.24
2018-06-03T04:06:59.777Z,14.12
2018-06-03T04:07:50.339Z,14.14
2018-06-03T04:08:50.569Z,14.17
2018-06-03T04:09:59.485Z,14.17
2018-06-03T04:10:51.166Z,14.02
2018-06-03T04:11:51.330Z,14.04
2018-06-03T04:13:00.264Z,13.97
2018-06-03T04:13:52.072Z,14.03
2018-06-03T04:14:52.168Z,13.99
2018-06-03T04:15:52.373Z,14.03
2018-06-03T04:17:01.332Z,14.14
2018-06-03T04:17:53.189Z,14.24
2018-06-03T04:18:53.329Z,14.37
2018-06-03T04:20:02.368Z,14.37
2018-06-03T04:20:54.111Z,14.50
2018-06-03T04:21:54.183Z,14.50
2018-06-03T04:23:03.319Z,14.58
2018-06-03T04:24:03.597Z,14.69
2018-06-03T04:24:55.033Z,14.68
2018-06-03T04:25:55.322Z,14.70
2018-06-03T04:26:55.433Z,14.69
2018-06-03T04:28:05.590Z,14.68
2018-06-03T04:28:56.041Z,14.70
2018-06-03T04:29:56.204Z,14.73
2018-06-03T04:30:56.436Z,14.78
2018-06-03T04:31:56.664Z,14.81
2018-06-03T04:33:05.834Z,14.91
2018-06-03T04:33:57.228Z,14.95
2018-06-03T04:35:06.151Z,15.01
2018-06-03T04:36:06.743Z,15.02
2018-06-03T04:36:58.316Z,14.89
2018-06-03T04:38:07.431Z,14.81
2018-06-03T04:38:58.927Z,14.89
2018-06-03T04:39:59.051Z,14.88
2018-06-03T04:40:59.251Z,14.95
2018-06-03T04:41:59.493Z,14.96
2018-06-03T04:42:59.756Z,14.91
2018-06-03T04:43:59.970Z,14.88
2018-06-03T04:45:00.229Z,14.89
2018-06-03T04:46:00.489Z,14.78
2018-06-03T04:47:00.708Z,14.75
2018-06-03T04:48:00.983Z,14.72
2018-06-03T04:49:01.216Z,14.73
2018-06-03T04:50:01.446Z,14.72
2018-06-03T04:51:01.670Z,14.72
2018-06-03T04:52:01.901Z,14.80
2018-06-03T04:53:11.014Z,14.77
2018-06-03T04:54:02.423Z,14.68
2018-06-03T04:55:11.422Z,14.69
2018-06-03T04:56:03.091Z,14.72
2018-06-03T04:57:03.272Z,14.73
2018-06-03T04:58:12.305Z,14.70
2018-06-03T04:59:04.060Z,14.81
2018-06-03T05:00:13.144Z,14.75
2018-06-03T05:01:04.515Z,14.78
2018-06-03T05:02:04.761Z,14.94
2018-06-03T05:03:13.929Z,15.01
2018-06-03T05:04:14.343Z,15.11
2018-06-03T05:05:05.651Z,15.14
2018-06-03T05:06:05.787Z,15.29
2018-06-03T05:07:14.827Z,15.23
2018-06-03T05:08:15.180Z,15.25
2018-06-03T05:09:15.596Z,15.25
2018-06-03T05:10:16.219Z,15.44
2018-06-03T05:11:07.455Z,15.54
2018-06-03T05:12:16.562Z,15.72
2018-06-03T05:13:08.022Z,15.74
2018-06-03T05:14:08.240Z,15.86
2018-06-03T05:15:08.414Z,15.96
2018-06-03T05:16:08.653Z,16.09
2018-06-03T05:17:08.897Z,16.23
2018-06-03T05:18:09.137Z,16.27
2018-06-03T05:19:09.392Z,16.35
2018-06-03T05:20:09.624Z,16.41
2018-06-03T05:21:09.842Z,16.58
2018-06-03T05:22:10.122Z,16.60
2018-06-03T05:23:10.328Z,16.58
2018-06-03T05:24:10.539Z,16.63
2018-06-03T05:25:19.624Z,16.78
2018-06-03T05:26:11.379Z,16.81
2018-06-03T05:27:11.568Z,16.96
2018-06-03T05:28:11.755Z,16.96
2018-06-03T05:29:11.976Z,17.06
2018-06-03T05:30:12.216Z,17.23
2018-06-03T05:31:12.460Z,17.11
2018-06-03T05:32:21.396Z,17.12
2018-06-03T05:33:13.087Z,17.06
2018-06-03T05:34:13.374Z,17.03
2018-06-03T05:35:13.548Z,17.11
2018-06-03T05:36:13.757Z,17.08
2018-06-03T05:37:14.032Z,17.18
2018-06-03T05:38:14.313Z,17.22
2018-06-03T05:39:23.374Z,17.26
2018-06-03T05:40:14.759Z,17.40
2018-06-03T05:41:14.996Z,17.43
2018-06-03T05:42:15.233Z,17.51
2018-06-03T05:43:15.464Z,17.56
2018-06-03T05:44:15.709Z,17.51
2018-06-03T05:45:15.959Z,17.51
2018-06-03T05:46:16.179Z,17.62
2018-06-03T05:47:16.431Z,17.68
2018-06-03T05:48:16.651Z,17.87
2018-06-03T05:49:16.928Z,17.78
2018-06-03T05:50:17.130Z,17.87
2018-06-03T05:51:17.364Z,17.90
2018-06-03T05:52:26.428Z,17.92
2018-06-03T05:53:18.095Z,17.77
2018-06-03T05:54:18.302Z,17.82
2018-06-03T05:55:18.472Z,17.75
2018-06-03T05:56:18.722Z,17.86
2018-06-03T05:57:18.961Z,17.90
2018-06-03T05:58:19.197Z,17.84
2018-06-03T05:59:27.421Z,17.81
2018-06-03T06:00:19.905Z,17.89
2018-06-03T06:01:20.113Z,18.00
2018-06-03T06:02:20.326Z,17.90
2018-06-03T06:03:20.554Z,17.93
2018-06-03T06:04:20.851Z,18.11
2018-06-03T06:05:21.044Z,18.27
2018-06-03T06:06:30.098Z,18.33
2018-06-03T06:07:31.533Z,18.45
2018-06-03T06:08:30.985Z,18.42
2018-06-03T06:09:22.404Z,18.36
2018-06-03T06:10:22.574Z,18.54
2018-06-03T06:11:32.591Z,18.51
2018-06-03T06:12:23.284Z,18.65
2018-06-03T06:13:23.469Z,18.84
2018-06-03T06:14:23.596Z,18.70
2018-06-03T06:15:23.822Z,18.81
2018-06-03T06:16:33.903Z,19.00
2018-06-03T06:17:24.342Z,19.14
2018-06-03T06:18:24.573Z,19.28
2018-06-03T06:19:24.845Z,19.29
2018-06-03T06:20:25.055Z,19.48
2018-06-03T06:21:25.286Z,19.58
2018-06-03T06:22:25.551Z,19.81
2018-06-03T06:23:25.781Z,19.92
2018-06-03T06:24:26.030Z,20.08
2018-06-03T06:25:26.280Z,20.17
2018-06-03T06:26:26.536Z,20.13
2018-06-03T06:27:26.759Z,20.26
2018-06-03T06:28:27.001Z,20.38
2018-06-03T06:29:27.246Z,20.41
2018-06-03T06:30:27.483Z,20.43
2018-06-03T06:31:27.710Z,20.41
2018-06-03T06:32:27.979Z,20.54
2018-06-03T06:33:28.186Z,20.57
2018-06-03T06:34:28.423Z,20.39
2018-06-03T06:35:28.692Z,20.32
2018-06-03T06:36:28.984Z,20.52
2018-06-03T06:37:29.159Z,20.58
2018-06-03T06:38:29.423Z,20.76
2018-06-03T06:39:29.635Z,20.97
2018-06-03T06:40:29.895Z,20.98
2018-06-03T06:41:30.155Z,21.29
2018-06-03T06:42:30.381Z,21.42
2018-06-03T06:43:30.626Z,21.44
2018-06-03T06:44:30.850Z,21.32
2018-06-03T06:45:31.107Z,21.44
2018-06-03T06:46:40.262Z,21.44
2018-06-03T06:47:31.779Z,21.38
2018-06-03T06:48:39.727Z,21.61
2018-06-03T06:49:40.022Z,21.68
2018-06-03T06:50:40.323Z,22.06
2018-06-03T06:51:40.694Z,22.25
2018-06-03T06:52:41.991Z,22.40
2018-06-03T06:53:41.467Z,22.54
2018-06-03T06:54:42.760Z,22.62
2018-06-03T06:55:42.161Z,22.68
2018-06-03T06:56:43.477Z,22.80
2018-06-03T06:57:42.917Z,22.91
2018-06-03T06:58:43.207Z,22.94
2018-06-03T06:59:44.571Z,22.88
2018-06-03T07:00:43.989Z,22.94
2018-06-03T07:01:44.244Z,23.02
2018-06-03T07:02:45.548Z,23.13
2018-06-03T07:03:45.938Z,23.17
2018-06-03T07:04:45.301Z,23.22
2018-06-03T07:05:45.607Z,23.17
2018-06-03T07:06:38.314Z,23.19
2018-06-03T07:07:47.182Z,23.12
2018-06-03T07:08:38.934Z,22.92
2018-06-03T07:09:46.833Z,23.00
2018-06-03T07:10:47.101Z,23.16
2018-06-03T07:11:47.561Z,23.36
2018-06-03T07:12:40.198Z,23.61
2018-06-03T07:13:50.063Z,23.97
2018-06-03T07:14:49.382Z,24.30
2018-06-03T07:15:48.747Z,24.12
2018-06-03T07:16:49.180Z,23.63
2018-06-03T07:17:41.759Z,23.85
2018-06-03T07:18:49.685Z,23.76
2018-06-03T07:19:51.096Z,24.37
2018-06-03T07:20:51.391Z,24.47
2018-06-03T07:21:50.787Z,24.12
2018-06-03T07:22:52.045Z,23.43
2018-06-03T07:23:52.493Z,23.04
2018-06-03T07:24:52.009Z,23.31
2018-06-03T07:25:53.373Z,23.43
2018-06-03T07:26:53.500Z,23.53
2018-06-03T07:27:52.886Z,23.61
2018-06-03T07:28:54.193Z,23.61
2018-06-03T07:29:54.670Z,23.47
2018-06-03T07:30:46.129Z,23.40
2018-06-03T07:31:46.360Z,23.51
2018-06-03T07:32:46.528Z,24.09
2018-06-03T07:33:46.798Z,24.28
2018-06-03T07:34:47.025Z,24.15
2018-06-03T07:35:47.296Z,24.27
2018-06-03T07:36:56.266Z,24.16
2018-06-03T07:37:48.008Z,24.22
2018-06-03T07:38:56.988Z,24.47
2018-06-03T07:39:48.658Z,24.93
2018-06-03T07:40:48.963Z,25.02
2018-06-03T07:41:57.897Z,25.08
2018-06-03T07:42:49.626Z,25.05
2018-06-03T07:43:58.575Z,26.18
2018-06-03T07:44:59.871Z,27.02
2018-06-03T07:45:50.476Z,27.93
2018-06-03T07:46:59.529Z,28.59
2018-06-03T07:47:59.868Z,26.52
2018-06-03T07:49:00.339Z,25.95
2018-06-03T07:49:51.979Z,25.65
2018-06-03T07:51:00.881Z,24.98
2018-06-03T07:51:52.607Z,24.00
2018-06-03T07:53:00.565Z,24.68
2018-06-03T07:54:01.907Z,26.25
2018-06-03T07:55:02.274Z,25.77
2018-06-03T07:56:01.807Z,26.06
2018-06-03T07:57:04.010Z,25.75
2018-06-03T07:58:02.318Z,26.94
2018-06-03T07:59:02.721Z,26.13
2018-06-03T08:00:04.034Z,25.54
2018-06-03T08:01:04.315Z,26.76
2018-06-03T08:02:03.790Z,27.39
2018-06-03T08:03:04.063Z,28.40
2018-06-03T08:04:05.314Z,29.28
2018-06-03T08:05:05.716Z,29.80
2018-06-03T08:06:05.145Z,29.37
2018-06-03T08:07:06.435Z,29.65
2018-06-03T08:08:05.912Z,30.05
2018-06-03T08:09:06.228Z,30.00
2018-06-03T08:10:06.488Z,30.34
2018-06-03T08:11:06.829Z,30.49
2018-06-03T08:12:07.195Z,31.16
2018-06-03T08:13:08.470Z,28.80
2018-06-03T08:14:08.900Z,26.66
2018-06-03T08:15:09.305Z,26.99
2018-06-03T08:16:09.764Z,25.33
2018-06-03T08:17:10.143Z,25.17
2018-06-03T08:18:10.524Z,26.32
2018-06-03T08:19:10.926Z,27.50
2018-06-03T08:20:11.298Z,27.25
2018-06-03T08:21:11.672Z,26.67
2018-06-03T08:22:12.123Z,26.45
2018-06-03T08:23:12.485Z,25.94
2018-06-03T08:24:12.891Z,25.70
2018-06-03T08:25:12.225Z,26.47
2018-06-03T08:26:13.520Z,26.39
2018-06-03T08:27:13.987Z,25.62
2018-06-03T08:28:14.351Z,25.36
2018-06-03T08:29:06.057Z,25.36
2018-06-03T08:30:14.019Z,25.92
2018-06-03T08:31:14.396Z,26.05
2018-06-03T08:32:15.638Z,26.48
2018-06-03T08:33:15.991Z,25.51
2018-06-03T08:34:16.408Z,26.21
2018-06-03T08:35:16.808Z,26.28
2018-06-03T08:36:17.226Z,26.21
2018-06-03T08:37:17.623Z,25.85
2018-06-03T08:38:17.940Z,27.18
2018-06-03T08:39:18.525Z,27.66
2018-06-03T08:40:18.811Z,28.12
2018-06-03T08:41:19.157Z,27.72
2018-06-03T08:42:18.518Z,28.85
2018-06-03T08:43:18.854Z,28.61
2018-06-03T08:44:20.210Z,28.41
2018-06-03T08:45:20.578Z,29.08
2018-06-03T08:46:19.974Z,29.31
2018-06-03T08:47:20.292Z,27.03
2018-06-03T08:48:20.668Z,26.32
2018-06-03T08:49:21.008Z,26.32
2018-06-03T08:50:22.345Z,26.37
2018-06-03T08:51:21.663Z,26.58
2018-06-03T08:52:22.967Z,26.88
2018-06-03T08:53:23.365Z,27.06
2018-06-03T08:54:22.763Z,26.40
2018-06-03T08:55:24.085Z,26.60
2018-06-03T08:56:24.529Z,26.92
2018-06-03T08:57:24.888Z,28.37
2018-06-03T08:58:24.290Z,28.03
2018-06-03T08:59:25.632Z,28.37
2018-06-03T09:00:25.167Z,29.27
2018-06-03T09:01:26.339Z,30.04
2018-06-03T09:02:26.670Z,30.00
2018-06-03T09:03:27.107Z,30.43
2018-06-03T09:04:27.459Z,31.07
2018-06-03T09:05:26.891Z,30.58
2018-06-03T09:06:27.206Z,30.99
2018-06-03T09:07:29.520Z,31.75
2018-06-03T09:08:27.840Z,31.92
2018-06-03T09:09:30.096Z,31.39
2018-06-03T09:10:29.287Z,30.37
2018-06-03T09:11:28.729Z,30.29
2018-06-03T09:12:29.071Z,31.10
2018-06-03T09:13:30.373Z,31.68
2018-06-03T09:14:29.784Z,31.91
2018-06-03T09:15:30.088Z,32.26
2018-06-03T09:16:31.430Z,30.43
2018-06-03T09:17:23.184Z,30.64
2018-06-03T09:18:23.406Z,31.70
2018-06-03T09:19:32.332Z,32.14
2018-06-03T09:20:31.714Z,32.77
2018-06-03T09:21:32.072Z,32.74
2018-06-03T09:22:33.376Z,33.00
2018-06-03T09:23:32.752Z,32.37
2018-06-03T09:24:33.062Z,32.25
2018-06-03T09:25:33.394Z,32.25
2018-06-03T09:26:33.714Z,31.78
2018-06-03T09:27:34.040Z,30.23
2018-06-03T09:28:26.667Z,29.09
2018-06-03T09:29:35.634Z,30.57
2018-06-03T09:30:27.343Z,32.28
2018-06-03T09:31:35.246Z,33.39
2018-06-03T09:32:35.638Z,34.00
2018-06-03T09:33:36.945Z,34.03
2018-06-03T09:34:36.354Z,34.89
2018-06-03T09:35:36.693Z,34.47
2018-06-03T09:36:36.969Z,34.66
2018-06-03T09:37:37.324Z,34.19
2018-06-03T09:38:37.637Z,34.62
2018-06-03T09:39:37.944Z,35.48
2018-06-03T09:40:30.592Z,35.63
2018-06-03T09:41:39.486Z,34.59
2018-06-03T09:42:38.974Z,35.21
2018-06-03T09:43:39.288Z,35.60
2018-06-03T09:44:31.980Z,35.96
2018-06-03T09:45:32.174Z,36.01
2018-06-03T09:46:32.421Z,36.07
2018-06-03T09:47:41.375Z,35.36
2018-06-03T09:48:41.773Z,35.97
2018-06-03T09:49:33.493Z,34.22
2018-06-03T09:50:33.746Z,32.96
2018-06-03T09:51:34.010Z,31.96
2018-06-03T09:52:34.251Z,30.91
2018-06-03T09:53:34.501Z,31.34
2018-06-03T09:54:34.754Z,32.22
2018-06-03T09:55:42.716Z,33.16
2018-06-03T09:56:45.039Z,33.26
2018-06-03T09:57:35.624Z,31.95
2018-06-03T09:58:35.874Z,31.20
2018-06-03T09:59:36.136Z,31.13
2018-06-03T10:00:36.373Z,30.83
2018-06-03T10:01:36.628Z,30.32
2018-06-03T10:02:44.542Z,30.15
2018-06-03T10:03:37.269Z,29.60
2018-06-03T10:04:37.445Z,28.95
2018-06-03T10:05:45.378Z,28.44
2018-06-03T10:06:47.740Z,28.61
2018-06-03T10:07:46.004Z,28.09
2018-06-03T10:08:46.304Z,27.96
2018-06-03T10:09:46.636Z,27.81
2018-06-03T10:10:46.963Z,27.88
2018-06-03T10:11:47.247Z,27.99
2018-06-03T10:12:48.621Z,27.96
2018-06-03T10:13:48.956Z,27.96
2018-06-03T10:14:48.352Z,27.90
2018-06-03T10:15:48.741Z,29.00
2018-06-03T10:16:49.057Z,28.61
2018-06-03T10:17:50.508Z,29.95
2018-06-03T10:18:49.834Z,31.44
2018-06-03T10:19:50.105Z,32.84
2018-06-03T10:20:50.486Z,32.88
2018-06-03T10:21:51.771Z,33.16
2018-06-03T10:22:51.189Z,32.74
2018-06-03T10:23:43.798Z,32.45
2018-06-03T10:24:44.045Z,32.07
2018-06-03T10:25:44.299Z,31.43
2018-06-03T10:26:44.552Z,31.21
2018-06-03T10:27:44.809Z,31.50
2018-06-03T10:28:45.093Z,30.82
2018-06-03T10:29:45.305Z,30.05
2018-06-03T10:30:45.546Z,29.49
2018-06-03T10:31:45.801Z,29.33
2018-06-03T10:32:46.051Z,28.98
2018-06-03T10:33:46.309Z,30.34
2018-06-03T10:34:46.564Z,31.14
2018-06-03T10:35:46.824Z,30.89
2018-06-03T10:36:47.076Z,29.36
2018-06-03T10:37:47.331Z,28.58
2018-06-03T10:38:47.588Z,28.39
2018-06-03T10:39:47.843Z,29.39
2018-06-03T10:40:48.102Z,30.47
2018-06-03T10:41:48.358Z,31.69
2018-06-03T10:42:48.611Z,32.11
2018-06-03T10:43:48.962Z,32.50
2018-06-03T10:44:49.123Z,33.15
2018-06-03T10:45:49.379Z,32.97
2018-06-03T10:46:49.634Z,33.76
2018-06-03T10:47:49.893Z,34.50
2018-06-03T10:48:50.149Z,34.89
2018-06-03T10:49:50.404Z,35.74
2018-06-03T10:50:50.664Z,36.37
2018-06-03T10:51:50.918Z,36.72
2018-06-03T10:52:51.175Z,36.88
2018-06-03T10:53:51.432Z,36.90
2018-06-03T10:54:51.692Z,37.44
2018-06-03T10:55:51.948Z,37.40
2018-06-03T10:56:52.202Z,37.07
2018-06-03T10:57:52.463Z,37.69
2018-06-03T10:58:52.722Z,37.84
2018-06-03T10:59:52.989Z,36.12
2018-06-03T11:00:53.241Z,35.34
2018-06-03T11:01:53.499Z,35.82
2018-06-03T11:02:53.758Z,34.92
2018-06-03T11:03:54.019Z,33.73
2018-06-03T11:04:54.278Z,34.66
2018-06-03T11:05:54.536Z,35.09
2018-06-03T11:06:54.796Z,35.29
2018-06-03T11:07:55.056Z,35.00
2018-06-03T11:08:55.314Z,34.56
2018-06-03T11:09:55.572Z,33.16
2018-06-03T11:10:55.829Z,32.01
2018-06-03T11:11:56.091Z,31.95
2018-06-03T11:12:56.348Z,32.69
2018-06-03T11:13:56.725Z,33.61
2018-06-03T11:14:56.971Z,34.16
2018-06-03T11:15:57.225Z,33.79
2018-06-03T11:16:57.495Z,34.65
2018-06-03T11:17:57.740Z,34.40
2018-06-03T11:18:58.070Z,33.56
2018-06-03T11:19:58.253Z,32.55
2018-06-03T11:20:58.506Z,32.47
2018-06-03T11:21:58.761Z,30.97
2018-06-03T11:22:59.017Z,29.98
2018-06-03T11:23:59.276Z,29.97
2018-06-03T11:24:59.537Z,29.79
2018-06-03T11:25:59.808Z,29.31
2018-06-03T11:27:00.052Z,27.67
2018-06-03T11:28:00.317Z,27.77
2018-06-03T11:29:00.638Z,27.96
2018-06-03T11:30:00.873Z,28.03
2018-06-03T11:31:01.147Z,28.29
2018-06-03T11:32:01.378Z,28.67
2018-06-03T11:33:01.637Z,29.16
2018-06-03T11:34:01.883Z,30.57
2018-06-03T11:35:02.251Z,31.69
2018-06-03T11:36:02.553Z,33.01
2018-06-03T11:37:02.874Z,33.76
2018-06-03T11:38:03.123Z,34.21
2018-06-03T11:39:03.386Z,34.72
2018-06-03T11:40:03.646Z,35.00
2018-06-03T11:41:03.901Z,33.29
2018-06-03T11:42:04.210Z,32.01
2018-06-03T11:43:04.409Z,32.32
2018-06-03T11:44:04.689Z,32.15
2018-06-03T11:45:04.941Z,30.24
2018-06-03T11:46:05.199Z,29.82
2018-06-03T11:47:05.495Z,28.67
2018-06-03T11:48:05.718Z,28.98
2018-06-03T11:49:05.963Z,28.95
2018-06-03T11:50:06.239Z,28.78
2018-06-03T11:51:06.556Z,28.66
2018-06-03T11:52:06.801Z,28.58
2018-06-03T11:53:07.051Z,28.64
2018-06-03T11:54:07.326Z,28.88
2018-06-03T11:55:07.574Z,28.74
2018-06-03T11:56:07.815Z,28.70
2018-06-03T11:57:08.082Z,28.55
2018-06-03T11:58:08.337Z,28.34
2018-06-03T11:59:08.660Z,28.12
2018-06-03T12:00:08.871Z,28.58
2018-06-03T12:01:09.124Z,29.86
2018-06-03T12:02:09.380Z,31.35
2018-06-03T12:03:09.629Z,31.57
2018-06-03T12:04:09.892Z,30.69
2018-06-03T12:05:10.143Z,31.14
2018-06-03T12:06:10.489Z,31.36
2018-06-03T12:07:10.702Z,32.00
2018-06-03T12:08:10.896Z,32.33
2018-06-03T12:09:11.149Z,32.35
2018-06-03T12:10:11.406Z,32.67
2018-06-03T12:11:11.658Z,33.98
2018-06-03T12:12:11.916Z,33.87
2018-06-03T12:13:12.171Z,34.08
2018-06-03T12:14:12.429Z,34.62
2018-06-03T12:15:12.700Z,34.81
2018-06-03T12:16:13.006Z,35.00
2018-06-03T12:17:13.247Z,34.62
2018-06-03T12:18:13.556Z,35.16
2018-06-03T12:19:13.801Z,35.11
2018-06-03T12:20:14.061Z,35.47
2018-06-03T12:21:14.325Z,35.60
2018-06-03T12:22:14.568Z,34.46
2018-06-03T12:23:14.827Z,34.59
2018-06-03T12:24:15.091Z,34.91
2018-06-03T12:25:15.344Z,35.02
2018-06-03T12:26:15.608Z,33.75
2018-06-03T12:27:15.857Z,32.04
2018-06-03T12:28:16.121Z,31.78
2018-06-03T12:29:16.376Z,32.77
2018-06-03T12:30:16.636Z,32.38
2018-06-03T12:31:16.894Z,32.07
2018-06-03T12:32:17.148Z,31.51
2018-06-03T12:33:17.408Z,30.83
2018-06-03T12:34:17.673Z,30.89
2018-06-03T12:35:17.946Z,30.64
2018-06-03T12:36:18.211Z,30.39
2018-06-03T12:37:18.418Z,30.29
2018-06-03T12:38:18.669Z,30.26
2018-06-03T12:39:18.924Z,30.37
2018-06-03T12:40:19.178Z,30.47
2018-06-03T12:41:19.434Z,30.58
2018-06-03T12:42:19.693Z,30.82
2018-06-03T12:43:19.948Z,31.58
2018-06-03T12:44:20.206Z,32.03
2018-06-03T12:45:20.463Z,33.07
2018-06-03T12:46:20.718Z,33.66
2018-06-03T12:47:21.024Z,33.94
2018-06-03T12:48:21.341Z,33.61
2018-06-03T12:49:21.476Z,34.27
2018-06-03T12:50:21.713Z,35.21
2018-06-03T12:51:21.970Z,35.04
2018-06-03T12:52:22.242Z,35.52
2018-06-03T12:53:22.482Z,35.47
2018-06-03T12:54:22.733Z,35.66
2018-06-03T12:55:22.985Z,35.97
2018-06-03T12:56:23.291Z,36.66
2018-06-03T12:57:23.495Z,36.00
2018-06-03T12:58:23.763Z,36.09
2018-06-03T12:59:24.027Z,35.80
2018-06-03T13:00:24.269Z,35.65
2018-06-03T13:01:32.225Z,35.55
2018-06-03T13:02:24.886Z,35.16
2018-06-03T13:03:25.140Z,35.23
2018-06-03T13:04:25.401Z,35.87
2018-06-03T13:05:25.655Z,36.17
2018-06-03T13:06:26.020Z,36.31
2018-06-03T13:07:26.168Z,36.50
2018-06-03T13:08:26.436Z,36.35
2018-06-03T13:09:26.752Z,35.48
2018-06-03T13:10:26.971Z,36.19
2018-06-03T13:11:27.412Z,36.53
2018-06-03T13:12:36.244Z,34.81
2018-06-03T13:13:27.799Z,35.36
2018-06-03T13:14:36.765Z,35.47
2018-06-03T13:15:39.125Z,35.62
2018-06-03T13:16:38.765Z,35.66
2018-06-03T13:17:29.050Z,34.56
2018-06-03T13:18:38.201Z,33.78
2018-06-03T13:19:37.438Z,32.78
2018-06-03T13:20:30.043Z,32.07
2018-06-03T13:21:30.312Z,31.50
2018-06-03T13:22:30.563Z,31.28
2018-06-03T13:23:30.826Z,30.80
2018-06-03T13:24:31.083Z,30.92
2018-06-03T13:25:39.968Z,30.64
2018-06-03T13:26:31.747Z,30.51
2018-06-03T13:27:40.944Z,30.54
2018-06-03T13:28:32.315Z,29.85
2018-06-03T13:29:41.396Z,29.51
2018-06-03T13:30:32.746Z,29.23
2018-06-03T13:31:33.005Z,29.05
2018-06-03T13:32:33.261Z,28.83
2018-06-03T13:33:33.520Z,30.02
2018-06-03T13:34:33.777Z,30.80
2018-06-03T13:35:34.037Z,30.24
2018-06-03T13:36:34.300Z,30.23
2018-06-03T13:37:34.563Z,30.97
2018-06-03T13:38:34.791Z,30.99
2018-06-03T13:39:35.038Z,31.89
2018-06-03T13:40:35.282Z,32.57
2018-06-03T13:41:35.545Z,33.42
2018-06-03T13:42:35.804Z,33.32
2018-06-03T13:43:36.064Z,33.76
2018-06-03T13:44:36.317Z,34.39
2018-06-03T13:45:36.570Z,34.56
2018-06-03T13:46:36.834Z,34.77
2018-06-03T13:47:37.076Z,34.02
2018-06-03T13:48:37.328Z,34.40
2018-06-03T13:49:37.585Z,34.31
2018-06-03T13:50:37.842Z,34.69
2018-06-03T13:51:38.102Z,34.64
2018-06-03T13:52:38.359Z,34.65
2018-06-03T13:53:38.634Z,33.94
2018-06-03T13:54:38.876Z,33.09
2018-06-03T13:55:39.102Z,33.47
2018-06-03T13:56:39.356Z,33.53
2018-06-03T13:57:39.617Z,32.65
2018-06-03T13:58:39.875Z,32.25
2018-06-03T13:59:40.131Z,31.10
2018-06-03T14:00:40.381Z,30.42
2018-06-03T14:01:40.637Z,29.97
2018-06-03T14:02:40.901Z,28.58
2018-06-03T14:03:41.144Z,28.48
2018-06-03T14:04:41.383Z,28.46
2018-06-03T14:05:41.639Z,28.24
2018-06-03T14:06:41.895Z,28.11
2018-06-03T14:07:42.151Z,28.17
2018-06-03T14:08:42.434Z,28.00
2018-06-03T14:09:52.357Z,27.92
2018-06-03T14:10:50.718Z,27.92
2018-06-03T14:11:43.282Z,27.90
2018-06-03T14:12:43.573Z,27.78
2018-06-03T14:13:44.373Z,27.84
2018-06-03T14:14:44.026Z,27.82
2018-06-03T14:15:44.259Z,27.67
2018-06-03T14:16:44.506Z,27.63
2018-06-03T14:17:44.763Z,27.47
2018-06-03T14:18:45.021Z,27.69
2018-06-03T14:19:45.264Z,27.65
2018-06-03T14:20:45.516Z,27.77
2018-06-03T14:21:45.755Z,27.67
2018-06-03T14:22:46.005Z,27.67
2018-06-03T14:23:46.263Z,27.78
2018-06-03T14:24:46.520Z,27.82
2018-06-03T14:25:46.761Z,27.70
2018-06-03T14:26:47.015Z,27.47
2018-06-03T14:27:47.266Z,27.28
2018-06-03T14:28:47.520Z,27.93
2018-06-03T14:29:47.773Z,28.59
2018-06-03T14:30:48.030Z,28.37
2018-06-03T14:31:48.282Z,29.26
2018-06-03T14:32:48.549Z,30.07
2018-06-03T14:33:48.772Z,30.46
2018-06-03T14:34:49.034Z,31.28
2018-06-03T14:35:49.275Z,31.65
2018-06-03T14:36:49.525Z,31.01
2018-06-03T14:37:49.776Z,31.16
2018-06-03T14:38:50.031Z,31.25
2018-06-03T14:39:50.289Z,31.50
2018-06-03T14:40:50.540Z,31.47
2018-06-03T14:41:50.791Z,31.93
2018-06-03T14:42:51.053Z,32.35
2018-06-03T14:43:51.301Z,31.89
2018-06-03T14:44:51.553Z,32.37
2018-06-03T14:45:51.815Z,32.57
2018-06-03T14:46:52.068Z,32.84
2018-06-03T14:47:52.335Z,33.12
2018-06-03T14:48:52.575Z,33.35
2018-06-03T14:49:52.829Z,33.18
2018-06-03T14:50:53.085Z,33.49
2018-06-03T14:51:53.339Z,33.38
2018-06-03T14:52:53.594Z,32.79
2018-06-03T14:53:53.849Z,32.82
2018-06-03T14:54:54.178Z,32.75
2018-06-03T14:55:54.434Z,33.16
2018-06-03T14:56:54.733Z,33.34
2018-06-03T14:57:54.970Z,33.32
2018-06-03T14:58:55.304Z,33.42
2018-06-03T14:59:55.511Z,33.31
2018-06-03T15:00:55.768Z,32.33
2018-06-03T15:01:56.002Z,32.03
2018-06-03T15:02:56.251Z,31.34
2018-06-03T15:03:56.516Z,31.39
2018-06-03T15:04:56.758Z,31.76
2018-06-03T15:05:57.013Z,32.07
2018-06-03T15:06:57.295Z,32.06
2018-06-03T15:07:57.513Z,31.66
2018-06-03T15:08:57.773Z,31.31
2018-06-03T15:09:58.019Z,31.43
2018-06-03T15:10:58.270Z,31.61
2018-06-03T15:11:58.537Z,31.43
2018-06-03T15:12:58.765Z,31.36
2018-06-03T15:13:59.015Z,31.69
2018-06-03T15:14:59.283Z,31.91
2018-06-03T15:15:59.555Z,32.40
2018-06-03T15:16:59.785Z,32.62
2018-06-03T15:18:00.053Z,32.38
2018-06-03T15:19:00.305Z,32.55